Accueil
METAR-TAF:

METAR-TAF

Aéroports :

La Rochelle, France

Aéroport de La Rochelle - île de Ré

latitude: 46-10-45N, longitude: 1-11-43W, altitude: 23 m

Observation

Le bulletin a été fait il y a 36 minutes, à 19:00 UTC
Vent 9 kt de est/nord-est
Température 24°C
Humidité 57%
Pression 1020 hPa
Visibilité 10 km ou plus
pas de nuages en-dessous de 1500 mètres et pas de cumulonimbus.

METAR: LFBH 241900Z AUTO 06009KT CAVOK 24/15 Q1020 NOSIG

Heure: 21:36 (19:36 UTC)

Prévision

Le bulletin a été fait il y a 2 heures et 36 minutes, à 17:00 UTC
Prévision valable du 24 à 18 UTC au 25 à 18 UTC
Vent 13 kt de est/nord-est
Visibilité 10 km ou plus
pas de nuages en-dessous de 1500 mètres et pas de cumulonimbus.
Probabilité 40%
du 24 à 20 UTC au 25 à 10 UTC
Vent 8 kt de est/nord-est

TAF: LFBH 241700Z 2418/2518 07013KT CAVOK PROB40 2420/2510 07008KT

Observations et prévisions météorologiques de plus de 4000 aéroports (messages METAR et TAF).

Les stations disponibles sont représentées par des disques jaunes et rouges sur la carte.

Passer la souris dessus pour voir le nom de la station.

Cliquer dessus pour voir les observations et prévisions météorologiques.

Pour changer de carte: cliquez sur les boutons verts avec une croix noire pour zoomer, sur le bouton vert avec un tiret pour effectuer un zoom arrière, ou sur les flèches vertes pour les cartes adjacentes.


METAR-TAF: